sensor_id;sensor_type;location;lat;lon;timestamp;P1;durP1;ratioP1;P2;durP2;ratioP2
51184;SDS011;37248;59.350;18.050;2022-12-18T00:01:02;3.10;;;1.33;;
51184;SDS011;37248;59.350;18.050;2022-12-18T00:03:31;8.30;;;1.63;;
51184;SDS011;37248;59.350;18.050;2022-12-18T00:05:56;2.55;;;1.50;;
51184;SDS011;37248;59.350;18.050;2022-12-18T00:08:22;2.03;;;1.20;;
51184;SDS011;37248;59.350;18.050;2022-12-18T00:10:47;3.63;;;1.63;;
51184;SDS011;37248;59.350;18.050;2022-12-18T00:13:12;3.10;;;1.80;;
51184;SDS011;37248;59.350;18.050;2022-12-18T00:15:38;3.90;;;1.63;;
51184;SDS011;37248;59.350;18.050;2022-12-18T00:18:04;3.42;;;1.42;;
51184;SDS011;37248;59.350;18.050;2022-12-18T00:20:30;2.63;;;1.67;;
51184;SDS011;37248;59.350;18.050;2022-12-18T00:22:55;6.07;;;1.65;;
51184;SDS011;37248;59.350;18.050;2022-12-18T00:25:20;4.20;;;1.77;;
51184;SDS011;37248;59.350;18.050;2022-12-18T00:27:46;4.80;;;1.60;;
51184;SDS011;37248;59.350;18.050;2022-12-18T00:30:11;2.27;;;1.30;;
51184;SDS011;37248;59.350;18.050;2022-12-18T00:32:36;4.35;;;1.70;;
51184;SDS011;37248;59.350;18.050;2022-12-18T00:35:02;2.03;;;1.43;;
51184;SDS011;37248;59.350;18.050;2022-12-18T00:37:28;5.03;;;1.80;;
51184;SDS011;37248;59.350;18.050;2022-12-18T00:39:53;3.57;;;1.93;;
51184;SDS011;37248;59.350;18.050;2022-12-18T00:42:18;3.20;;;1.60;;
51184;SDS011;37248;59.350;18.050;2022-12-18T00:45:02;5.10;;;1.50;;
51184;SDS011;37248;59.350;18.050;2022-12-18T00:47:27;3.23;;;1.80;;
51184;SDS011;37248;59.350;18.050;2022-12-18T00:49:53;3.77;;;1.60;;
51184;SDS011;37248;59.350;18.050;2022-12-18T00:52:18;2.67;;;1.50;;
51184;SDS011;37248;59.350;18.050;2022-12-18T00:54:43;5.43;;;2.00;;
51184;SDS011;37248;59.350;18.050;2022-12-18T00:57:08;2.50;;;1.90;;
51184;SDS011;37248;59.350;18.050;2022-12-18T00:59:34;3.80;;;2.00;;
51184;SDS011;37248;59.350;18.050;2022-12-18T01:01:59;3.40;;;1.43;;
51184;SDS011;37248;59.350;18.050;2022-12-18T01:04:24;4.53;;;1.73;;
51184;SDS011;37248;59.350;18.050;2022-12-18T01:06:49;2.83;;;1.70;;
51184;SDS011;37248;59.350;18.050;2022-12-18T01:09:15;3.37;;;1.57;;
51184;SDS011;37248;59.350;18.050;2022-12-18T01:11:40;3.17;;;1.90;;
51184;SDS011;37248;59.350;18.050;2022-12-18T01:14:05;3.43;;;1.90;;
51184;SDS011;37248;59.350;18.050;2022-12-18T01:16:30;3.23;;;1.73;;
51184;SDS011;37248;59.350;18.050;2022-12-18T01:18:56;3.77;;;1.40;;
51184;SDS011;37248;59.350;18.050;2022-12-18T01:21:21;3.10;;;1.67;;
51184;SDS011;37248;59.350;18.050;2022-12-18T01:23:50;2.50;;;1.65;;
51184;SDS011;37248;59.350;18.050;2022-12-18T01:26:15;3.30;;;1.80;;
51184;SDS011;37248;59.350;18.050;2022-12-18T01:28:41;4.30;;;2.00;;
51184;SDS011;37248;59.350;18.050;2022-12-18T01:33:38;3.20;;;1.60;;
51184;SDS011;37248;59.350;18.050;2022-12-18T01:36:03;4.30;;;3.03;;
51184;SDS011;37248;59.350;18.050;2022-12-18T01:38:28;8.40;;;6.60;;
51184;SDS011;37248;59.350;18.050;2022-12-18T01:40:57;3.70;;;2.97;;
51184;SDS011;37248;59.350;18.050;2022-12-18T01:43:39;3.20;;;2.40;;
51184;SDS011;37248;59.350;18.050;2022-12-18T01:46:05;3.83;;;2.72;;
51184;SDS011;37248;59.350;18.050;2022-12-18T01:48:30;4.13;;;2.60;;
51184;SDS011;37248;59.350;18.050;2022-12-18T01:50:56;3.57;;;2.80;;
51184;SDS011;37248;59.350;18.050;2022-12-18T01:53:21;3.77;;;2.83;;
51184;SDS011;37248;59.350;18.050;2022-12-18T01:55:48;3.80;;;2.60;;
51184;SDS011;37248;59.350;18.050;2022-12-18T01:58:14;3.72;;;2.63;;
51184;SDS011;37248;59.350;18.050;2022-12-18T02:00:40;4.10;;;2.33;;
51184;SDS011;37248;59.350;18.050;2022-12-18T02:03:05;4.27;;;2.90;;
51184;SDS011;37248;59.350;18.050;2022-12-18T02:10:29;5.75;;;2.58;;
51184;SDS011;37248;59.350;18.050;2022-12-18T02:18:08;4.10;;;2.73;;
51184;SDS011;37248;59.350;18.050;2022-12-18T02:20:59;3.83;;;2.70;;
51184;SDS011;37248;59.350;18.050;2022-12-18T02:23:30;4.07;;;2.80;;
51184;SDS011;37248;59.350;18.050;2022-12-18T02:28:28;5.00;;;2.50;;
51184;SDS011;37248;59.350;18.050;2022-12-18T02:30:56;3.38;;;2.63;;
51184;SDS011;37248;59.350;18.050;2022-12-18T02:33:27;4.18;;;2.80;;
51184;SDS011;37248;59.350;18.050;2022-12-18T02:35:53;3.53;;;2.53;;
51184;SDS011;37248;59.350;18.050;2022-12-18T02:38:19;3.20;;;2.30;;
51184;SDS011;37248;59.350;18.050;2022-12-18T02:40:45;3.17;;;2.50;;
51184;SDS011;37248;59.350;18.050;2022-12-18T02:43:12;4.78;;;2.45;;
51184;SDS011;37248;59.350;18.050;2022-12-18T02:45:50;4.78;;;2.65;;
51184;SDS011;37248;59.350;18.050;2022-12-18T02:48:22;3.50;;;2.40;;
51184;SDS011;37248;59.350;18.050;2022-12-18T02:53:28;2.90;;;2.30;;
51184;SDS011;37248;59.350;18.050;2022-12-18T02:56:01;4.53;;;2.50;;
51184;SDS011;37248;59.350;18.050;2022-12-18T03:03:36;3.67;;;2.00;;
51184;SDS011;37248;59.350;18.050;2022-12-18T03:06:12;3.17;;;2.40;;
51184;SDS011;37248;59.350;18.050;2022-12-18T03:08:41;3.15;;;2.47;;
51184;SDS011;37248;59.350;18.050;2022-12-18T03:11:08;3.03;;;2.30;;
51184;SDS011;37248;59.350;18.050;2022-12-18T03:13:48;3.00;;;2.20;;
51184;SDS011;37248;59.350;18.050;2022-12-18T03:16:17;2.72;;;2.10;;
51184;SDS011;37248;59.350;18.050;2022-12-18T03:18:46;3.03;;;2.30;;
51184;SDS011;37248;59.350;18.050;2022-12-18T03:21:12;2.90;;;2.28;;
51184;SDS011;37248;59.350;18.050;2022-12-18T03:23:40;3.63;;;2.10;;
51184;SDS011;37248;59.350;18.050;2022-12-18T03:26:07;5.07;;;2.50;;
51184;SDS011;37248;59.350;18.050;2022-12-18T03:28:35;3.13;;;2.47;;
51184;SDS011;37248;59.350;18.050;2022-12-18T03:31:01;4.15;;;2.20;;
51184;SDS011;37248;59.350;18.050;2022-12-18T03:35:54;6.23;;;5.20;;
51184;SDS011;37248;59.350;18.050;2022-12-18T03:38:19;10.75;;;8.70;;
51184;SDS011;37248;59.350;18.050;2022-12-18T03:40:53;14.10;;;11.73;;
51184;SDS011;37248;59.350;18.050;2022-12-18T03:46:30;18.00;;;14.88;;
51184;SDS011;37248;59.350;18.050;2022-12-18T03:51:51;21.15;;;16.33;;
51184;SDS011;37248;59.350;18.050;2022-12-18T03:54:17;21.17;;;17.38;;
51184;SDS011;37248;59.350;18.050;2022-12-18T03:56:44;24.80;;;19.60;;
51184;SDS011;37248;59.350;18.050;2022-12-18T03:59:11;22.95;;;19.50;;
51184;SDS011;37248;59.350;18.050;2022-12-18T04:01:38;22.92;;;19.73;;
51184;SDS011;37248;59.350;18.050;2022-12-18T04:04:05;24.63;;;20.23;;
51184;SDS011;37248;59.350;18.050;2022-12-18T04:06:34;24.13;;;19.83;;
51184;SDS011;37248;59.350;18.050;2022-12-18T04:09:00;26.20;;;20.20;;
51184;SDS011;37248;59.350;18.050;2022-12-18T04:11:25;24.43;;;20.27;;
51184;SDS011;37248;59.350;18.050;2022-12-18T04:13:52;26.27;;;20.33;;
51184;SDS011;37248;59.350;18.050;2022-12-18T04:16:20;28.20;;;21.23;;
51184;SDS011;37248;59.350;18.050;2022-12-18T04:18:45;23.67;;;20.60;;
51184;SDS011;37248;59.350;18.050;2022-12-18T04:21:10;26.37;;;21.23;;
51184;SDS011;37248;59.350;18.050;2022-12-18T04:23:35;24.10;;;20.77;;
51184;SDS011;37248;59.350;18.050;2022-12-18T04:26:01;24.47;;;20.93;;
51184;SDS011;37248;59.350;18.050;2022-12-18T04:28:26;24.23;;;20.17;;
51184;SDS011;37248;59.350;18.050;2022-12-18T04:30:51;25.17;;;20.90;;
51184;SDS011;37248;59.350;18.050;2022-12-18T04:33:17;23.88;;;20.40;;
51184;SDS011;37248;59.350;18.050;2022-12-18T04:35:42;24.10;;;19.87;;
51184;SDS011;37248;59.350;18.050;2022-12-18T04:38:08;24.30;;;19.23;;
51184;SDS011;37248;59.350;18.050;2022-12-18T04:40:36;26.00;;;20.60;;
51184;SDS011;37248;59.350;18.050;2022-12-18T04:43:02;23.48;;;20.77;;
51184;SDS011;37248;59.350;18.050;2022-12-18T04:45:27;25.03;;;20.50;;
51184;SDS011;37248;59.350;18.050;2022-12-18T04:47:53;26.27;;;21.20;;
51184;SDS011;37248;59.350;18.050;2022-12-18T04:50:18;25.50;;;19.43;;
51184;SDS011;37248;59.350;18.050;2022-12-18T04:52:43;24.30;;;19.93;;
51184;SDS011;37248;59.350;18.050;2022-12-18T04:55:08;22.27;;;18.63;;
51184;SDS011;37248;59.350;18.050;2022-12-18T04:57:34;23.83;;;19.63;;
51184;SDS011;37248;59.350;18.050;2022-12-18T04:59:59;24.53;;;18.93;;
51184;SDS011;37248;59.350;18.050;2022-12-18T05:02:24;23.87;;;18.43;;
51184;SDS011;37248;59.350;18.050;2022-12-18T05:04:49;22.50;;;18.67;;
51184;SDS011;37248;59.350;18.050;2022-12-18T05:07:15;21.90;;;18.50;;
51184;SDS011;37248;59.350;18.050;2022-12-18T05:09:40;21.77;;;18.67;;
51184;SDS011;37248;59.350;18.050;2022-12-18T05:12:05;21.13;;;17.93;;
51184;SDS011;37248;59.350;18.050;2022-12-18T05:14:30;19.80;;;17.10;;
51184;SDS011;37248;59.350;18.050;2022-12-18T05:16:56;19.20;;;16.67;;
51184;SDS011;37248;59.350;18.050;2022-12-18T05:19:21;20.23;;;16.60;;
51184;SDS011;37248;59.350;18.050;2022-12-18T05:21:46;21.33;;;16.33;;
51184;SDS011;37248;59.350;18.050;2022-12-18T05:24:11;19.43;;;16.47;;
51184;SDS011;37248;59.350;18.050;2022-12-18T05:26:37;17.40;;;14.90;;
51184;SDS011;37248;59.350;18.050;2022-12-18T05:29:02;17.77;;;15.07;;
51184;SDS011;37248;59.350;18.050;2022-12-18T05:31:27;19.53;;;15.40;;
51184;SDS011;37248;59.350;18.050;2022-12-18T05:33:53;20.13;;;15.57;;
51184;SDS011;37248;59.350;18.050;2022-12-18T05:36:19;18.88;;;15.05;;
51184;SDS011;37248;59.350;18.050;2022-12-18T05:38:44;18.63;;;14.30;;
51184;SDS011;37248;59.350;18.050;2022-12-18T05:41:09;16.30;;;13.60;;
51184;SDS011;37248;59.350;18.050;2022-12-18T05:43:35;17.70;;;13.83;;
51184;SDS011;37248;59.350;18.050;2022-12-18T05:46:08;17.50;;;13.38;;
51184;SDS011;37248;59.350;18.050;2022-12-18T05:48:34;17.55;;;14.25;;
51184;SDS011;37248;59.350;18.050;2022-12-18T05:51:03;16.93;;;12.97;;
51184;SDS011;37248;59.350;18.050;2022-12-18T05:53:28;16.17;;;13.00;;
51184;SDS011;37248;59.350;18.050;2022-12-18T05:55:53;14.37;;;12.07;;
51184;SDS011;37248;59.350;18.050;2022-12-18T05:58:19;20.80;;;13.13;;
51184;SDS011;37248;59.350;18.050;2022-12-18T06:00:45;17.13;;;12.27;;
51184;SDS011;37248;59.350;18.050;2022-12-18T06:03:11;16.55;;;12.68;;
51184;SDS011;37248;59.350;18.050;2022-12-18T06:05:38;15.37;;;11.97;;
51184;SDS011;37248;59.350;18.050;2022-12-18T06:08:03;15.93;;;11.65;;
51184;SDS011;37248;59.350;18.050;2022-12-18T06:10:29;15.55;;;10.85;;
51184;SDS011;37248;59.350;18.050;2022-12-18T06:12:54;14.20;;;10.85;;
51184;SDS011;37248;59.350;18.050;2022-12-18T06:15:20;15.10;;;11.03;;
51184;SDS011;37248;59.350;18.050;2022-12-18T06:17:45;13.27;;;10.27;;
51184;SDS011;37248;59.350;18.050;2022-12-18T06:20:10;12.23;;;10.03;;
51184;SDS011;37248;59.350;18.050;2022-12-18T06:22:35;13.45;;;10.02;;
51184;SDS011;37248;59.350;18.050;2022-12-18T06:25:01;13.43;;;9.70;;
51184;SDS011;37248;59.350;18.050;2022-12-18T06:27:26;11.00;;;9.30;;
51184;SDS011;37248;59.350;18.050;2022-12-18T06:29:51;12.93;;;9.03;;
51184;SDS011;37248;59.350;18.050;2022-12-18T06:32:17;13.23;;;9.32;;
51184;SDS011;37248;59.350;18.050;2022-12-18T06:34:42;12.60;;;8.67;;
51184;SDS011;37248;59.350;18.050;2022-12-18T06:37:07;12.80;;;8.90;;
51184;SDS011;37248;59.350;18.050;2022-12-18T06:39:32;10.33;;;8.37;;
51184;SDS011;37248;59.350;18.050;2022-12-18T06:41:58;10.93;;;8.17;;
51184;SDS011;37248;59.350;18.050;2022-12-18T06:44:23;12.13;;;8.13;;
51184;SDS011;37248;59.350;18.050;2022-12-18T06:46:48;10.93;;;8.27;;
51184;SDS011;37248;59.350;18.050;2022-12-18T06:49:13;11.40;;;7.50;;
51184;SDS011;37248;59.350;18.050;2022-12-18T06:51:39;9.93;;;7.90;;
51184;SDS011;37248;59.350;18.050;2022-12-18T06:54:04;8.60;;;7.47;;
51184;SDS011;37248;59.350;18.050;2022-12-18T06:56:30;10.13;;;7.33;;
51184;SDS011;37248;59.350;18.050;2022-12-18T06:58:55;8.90;;;7.38;;
51184;SDS011;37248;59.350;18.050;2022-12-18T07:01:20;8.73;;;6.97;;
51184;SDS011;37248;59.350;18.050;2022-12-18T07:03:45;7.43;;;6.47;;
51184;SDS011;37248;59.350;18.050;2022-12-18T07:06:12;8.87;;;6.60;;
51184;SDS011;37248;59.350;18.050;2022-12-18T07:08:38;7.57;;;6.27;;
51184;SDS011;37248;59.350;18.050;2022-12-18T07:11:03;7.87;;;6.37;;
51184;SDS011;37248;59.350;18.050;2022-12-18T07:13:29;8.05;;;6.63;;
51184;SDS011;37248;59.350;18.050;2022-12-18T07:15:54;7.93;;;6.13;;
51184;SDS011;37248;59.350;18.050;2022-12-18T07:18:19;7.47;;;6.37;;
51184;SDS011;37248;59.350;18.050;2022-12-18T07:20:44;8.70;;;6.37;;
51184;SDS011;37248;59.350;18.050;2022-12-18T07:23:10;8.03;;;5.97;;
51184;SDS011;37248;59.350;18.050;2022-12-18T07:25:35;6.77;;;5.53;;
51184;SDS011;37248;59.350;18.050;2022-12-18T07:28:01;7.27;;;5.73;;
51184;SDS011;37248;59.350;18.050;2022-12-18T07:30:26;8.93;;;5.93;;
51184;SDS011;37248;59.350;18.050;2022-12-18T07:32:52;6.40;;;5.00;;
51184;SDS011;37248;59.350;18.050;2022-12-18T07:35:17;6.40;;;5.13;;
51184;SDS011;37248;59.350;18.050;2022-12-18T07:37:42;7.80;;;5.20;;
51184;SDS011;37248;59.350;18.050;2022-12-18T07:40:07;6.57;;;5.10;;
51184;SDS011;37248;59.350;18.050;2022-12-18T07:42:33;5.72;;;4.85;;
51184;SDS011;37248;59.350;18.050;2022-12-18T07:44:59;5.97;;;4.53;;
51184;SDS011;37248;59.350;18.050;2022-12-18T07:47:25;6.22;;;4.72;;
51184;SDS011;37248;59.350;18.050;2022-12-18T07:49:50;6.33;;;4.43;;
51184;SDS011;37248;59.350;18.050;2022-12-18T07:52:15;5.63;;;4.73;;
51184;SDS011;37248;59.350;18.050;2022-12-18T07:54:40;6.40;;;4.60;;
51184;SDS011;37248;59.350;18.050;2022-12-18T07:57:06;8.30;;;4.40;;
51184;SDS011;37248;59.350;18.050;2022-12-18T07:59:31;6.05;;;4.40;;
51184;SDS011;37248;59.350;18.050;2022-12-18T08:01:57;5.70;;;4.20;;
51184;SDS011;37248;59.350;18.050;2022-12-18T08:04:22;4.53;;;3.97;;
51184;SDS011;37248;59.350;18.050;2022-12-18T08:06:47;4.37;;;3.67;;
51184;SDS011;37248;59.350;18.050;2022-12-18T08:09:13;4.90;;;3.77;;
51184;SDS011;37248;59.350;18.050;2022-12-18T08:11:38;4.80;;;3.13;;
51184;SDS011;37248;59.350;18.050;2022-12-18T08:14:03;5.03;;;3.20;;
51184;SDS011;37248;59.350;18.050;2022-12-18T08:16:28;4.20;;;3.00;;
51184;SDS011;37248;59.350;18.050;2022-12-18T08:18:55;4.60;;;3.08;;
51184;SDS011;37248;59.350;18.050;2022-12-18T08:21:22;3.75;;;2.85;;
51184;SDS011;37248;59.350;18.050;2022-12-18T08:23:48;4.90;;;2.72;;
51184;SDS011;37248;59.350;18.050;2022-12-18T08:26:13;13.07;;;3.30;;
51184;SDS011;37248;59.350;18.050;2022-12-18T08:28:39;5.23;;;2.70;;
51184;SDS011;37248;59.350;18.050;2022-12-18T08:31:04;5.78;;;3.30;;
51184;SDS011;37248;59.350;18.050;2022-12-18T08:33:30;11.23;;;3.17;;
51184;SDS011;37248;59.350;18.050;2022-12-18T08:35:55;6.57;;;2.87;;
51184;SDS011;37248;59.350;18.050;2022-12-18T08:38:20;9.10;;;3.30;;
51184;SDS011;37248;59.350;18.050;2022-12-18T08:40:46;13.90;;;2.70;;
51184;SDS011;37248;59.350;18.050;2022-12-18T08:43:11;10.90;;;2.43;;
51184;SDS011;37248;59.350;18.050;2022-12-18T08:45:54;5.05;;;2.60;;
51184;SDS011;37248;59.350;18.050;2022-12-18T08:48:20;5.30;;;2.30;;
51184;SDS011;37248;59.350;18.050;2022-12-18T08:51:03;10.03;;;2.47;;
51184;SDS011;37248;59.350;18.050;2022-12-18T08:53:29;5.45;;;2.83;;
51184;SDS011;37248;59.350;18.050;2022-12-18T08:55:55;9.03;;;2.47;;
51184;SDS011;37248;59.350;18.050;2022-12-18T08:58:21;6.93;;;2.40;;
51184;SDS011;37248;59.350;18.050;2022-12-18T09:00:46;6.50;;;2.50;;
51184;SDS011;37248;59.350;18.050;2022-12-18T09:03:18;8.83;;;2.73;;
51184;SDS011;37248;59.350;18.050;2022-12-18T09:05:43;6.75;;;2.45;;
51184;SDS011;37248;59.350;18.050;2022-12-18T09:08:10;5.43;;;2.23;;
51184;SDS011;37248;59.350;18.050;2022-12-18T09:10:40;7.57;;;2.40;;
51184;SDS011;37248;59.350;18.050;2022-12-18T09:13:06;8.00;;;2.33;;
51184;SDS011;37248;59.350;18.050;2022-12-18T09:15:31;8.93;;;2.50;;
51184;SDS011;37248;59.350;18.050;2022-12-18T09:17:56;4.93;;;2.13;;
51184;SDS011;37248;59.350;18.050;2022-12-18T09:20:22;4.83;;;1.97;;
51184;SDS011;37248;59.350;18.050;2022-12-18T09:22:47;4.03;;;2.07;;
51184;SDS011;37248;59.350;18.050;2022-12-18T09:25:12;4.13;;;2.27;;
51184;SDS011;37248;59.350;18.050;2022-12-18T09:27:38;5.22;;;2.33;;
51184;SDS011;37248;59.350;18.050;2022-12-18T09:30:04;10.13;;;2.50;;
51184;SDS011;37248;59.350;18.050;2022-12-18T09:32:29;7.37;;;2.40;;
51184;SDS011;37248;59.350;18.050;2022-12-18T09:34:55;5.27;;;2.00;;
51184;SDS011;37248;59.350;18.050;2022-12-18T09:37:20;7.78;;;2.35;;
51184;SDS011;37248;59.350;18.050;2022-12-18T09:39:45;8.10;;;2.80;;
51184;SDS011;37248;59.350;18.050;2022-12-18T09:42:21;8.95;;;2.35;;
51184;SDS011;37248;59.350;18.050;2022-12-18T09:44:55;6.07;;;2.53;;
51184;SDS011;37248;59.350;18.050;2022-12-18T09:49:55;9.18;;;2.75;;
51184;SDS011;37248;59.350;18.050;2022-12-18T09:52:35;10.30;;;2.72;;
51184;SDS011;37248;59.350;18.050;2022-12-18T09:55:08;7.80;;;2.50;;
51184;SDS011;37248;59.350;18.050;2022-12-18T09:57:37;8.70;;;2.83;;
51184;SDS011;37248;59.350;18.050;2022-12-18T10:00:15;10.75;;;2.97;;
51184;SDS011;37248;59.350;18.050;2022-12-18T10:02:42;8.65;;;2.50;;
51184;SDS011;37248;59.350;18.050;2022-12-18T10:07:42;31.93;;;4.33;;
51184;SDS011;37248;59.350;18.050;2022-12-18T10:10:30;20.98;;;3.75;;
51184;SDS011;37248;59.350;18.050;2022-12-18T10:18:03;19.90;;;3.78;;
51184;SDS011;37248;59.350;18.050;2022-12-18T10:20:40;19.27;;;3.63;;
51184;SDS011;37248;59.350;18.050;2022-12-18T10:26:01;12.93;;;3.10;;
51184;SDS011;37248;59.350;18.050;2022-12-18T10:28:27;12.10;;;2.50;;
51184;SDS011;37248;59.350;18.050;2022-12-18T10:30:54;16.33;;;3.30;;
51184;SDS011;37248;59.350;18.050;2022-12-18T10:33:20;10.60;;;2.50;;
51184;SDS011;37248;59.350;18.050;2022-12-18T10:35:47;6.18;;;2.35;;
51184;SDS011;37248;59.350;18.050;2022-12-18T10:40:52;12.83;;;2.50;;
51184;SDS011;37248;59.350;18.050;2022-12-18T10:43:25;10.37;;;2.50;;
51184;SDS011;37248;59.350;18.050;2022-12-18T10:46:24;10.75;;;2.25;;
51184;SDS011;37248;59.350;18.050;2022-12-18T10:51:27;7.05;;;2.35;;
51184;SDS011;37248;59.350;18.050;2022-12-18T10:54:05;6.50;;;2.33;;
51184;SDS011;37248;59.350;18.050;2022-12-18T10:56:33;7.50;;;2.33;;
51184;SDS011;37248;59.350;18.050;2022-12-18T10:59:00;8.97;;;2.03;;
51184;SDS011;37248;59.350;18.050;2022-12-18T11:01:26;10.45;;;2.50;;
51184;SDS011;37248;59.350;18.050;2022-12-18T11:06:19;6.10;;;2.20;;
51184;SDS011;37248;59.350;18.050;2022-12-18T11:11:24;8.93;;;3.17;;
51184;SDS011;37248;59.350;18.050;2022-12-18T11:16:24;8.50;;;2.88;;
51184;SDS011;37248;59.350;18.050;2022-12-18T11:18:50;9.93;;;2.53;;
51184;SDS011;37248;59.350;18.050;2022-12-18T11:21:16;5.73;;;2.33;;
51184;SDS011;37248;59.350;18.050;2022-12-18T11:23:59;8.73;;;2.63;;
51184;SDS011;37248;59.350;18.050;2022-12-18T11:26:33;8.68;;;2.78;;
51184;SDS011;37248;59.350;18.050;2022-12-18T11:29:09;9.43;;;2.35;;
51184;SDS011;37248;59.350;18.050;2022-12-18T11:31:34;8.23;;;2.28;;
51184;SDS011;37248;59.350;18.050;2022-12-18T11:34:05;6.22;;;2.03;;
51184;SDS011;37248;59.350;18.050;2022-12-18T11:36:33;6.47;;;1.85;;
51184;SDS011;37248;59.350;18.050;2022-12-18T11:39:02;10.00;;;2.15;;
51184;SDS011;37248;59.350;18.050;2022-12-18T11:44:15;5.18;;;1.90;;
51184;SDS011;37248;59.350;18.050;2022-12-18T11:46:49;6.80;;;1.83;;
51184;SDS011;37248;59.350;18.050;2022-12-18T11:51:48;4.97;;;1.65;;
51184;SDS011;37248;59.350;18.050;2022-12-18T11:54:15;5.43;;;1.70;;
51184;SDS011;37248;59.350;18.050;2022-12-18T11:56:55;3.90;;;1.50;;
51184;SDS011;37248;59.350;18.050;2022-12-18T12:01:51;4.77;;;1.70;;
51184;SDS011;37248;59.350;18.050;2022-12-18T12:09:18;3.80;;;1.77;;
51184;SDS011;37248;59.350;18.050;2022-12-18T12:14:35;2.77;;;1.60;;
51184;SDS011;37248;59.350;18.050;2022-12-18T12:24:48;4.20;;;1.53;;
51184;SDS011;37248;59.350;18.050;2022-12-18T12:29:55;2.53;;;1.50;;
51184;SDS011;37248;59.350;18.050;2022-12-18T12:32:25;2.05;;;1.20;;
51184;SDS011;37248;59.350;18.050;2022-12-18T12:35:02;3.25;;;1.30;;
51184;SDS011;37248;59.350;18.050;2022-12-18T12:37:42;4.55;;;1.30;;
51184;SDS011;37248;59.350;18.050;2022-12-18T12:40:12;3.47;;;1.55;;
51184;SDS011;37248;59.350;18.050;2022-12-18T12:42:39;4.55;;;1.58;;
51184;SDS011;37248;59.350;18.050;2022-12-18T12:45:30;2.78;;;1.30;;
51184;SDS011;37248;59.350;18.050;2022-12-18T12:47:55;2.63;;;1.30;;
51184;SDS011;37248;59.350;18.050;2022-12-18T12:50:23;2.28;;;1.40;;
51184;SDS011;37248;59.350;18.050;2022-12-18T12:52:52;1.97;;;1.30;;
51184;SDS011;37248;59.350;18.050;2022-12-18T12:55:22;3.10;;;1.60;;
51184;SDS011;37248;59.350;18.050;2022-12-18T12:58:08;2.40;;;1.73;;
51184;SDS011;37248;59.350;18.050;2022-12-18T13:00:44;2.97;;;1.50;;
51184;SDS011;37248;59.350;18.050;2022-12-18T13:08:24;3.35;;;1.27;;
51184;SDS011;37248;59.350;18.050;2022-12-18T13:10:50;3.25;;;1.30;;
51184;SDS011;37248;59.350;18.050;2022-12-18T13:13:55;2.95;;;1.60;;
51184;SDS011;37248;59.350;18.050;2022-12-18T13:16:21;2.60;;;1.40;;
51184;SDS011;37248;59.350;18.050;2022-12-18T13:18:48;4.47;;;1.57;;
51184;SDS011;37248;59.350;18.050;2022-12-18T13:21:24;4.25;;;1.20;;
51184;SDS011;37248;59.350;18.050;2022-12-18T13:23:52;3.15;;;1.40;;
51184;SDS011;37248;59.350;18.050;2022-12-18T13:34:09;4.78;;;1.45;;
51184;SDS011;37248;59.350;18.050;2022-12-18T13:36:37;6.10;;;1.25;;
51184;SDS011;37248;59.350;18.050;2022-12-18T13:41:53;2.17;;;1.15;;
51184;SDS011;37248;59.350;18.050;2022-12-18T13:44:32;4.25;;;1.20;;
51184;SDS011;37248;59.350;18.050;2022-12-18T13:46:58;4.25;;;1.45;;
51184;SDS011;37248;59.350;18.050;2022-12-18T13:49:24;3.55;;;1.10;;
51184;SDS011;37248;59.350;18.050;2022-12-18T13:51:51;3.20;;;1.17;;
51184;SDS011;37248;59.350;18.050;2022-12-18T13:57:01;3.22;;;1.30;;
51184;SDS011;37248;59.350;18.050;2022-12-18T14:04:21;3.57;;;1.50;;
51184;SDS011;37248;59.350;18.050;2022-12-18T14:06:47;4.47;;;1.63;;
51184;SDS011;37248;59.350;18.050;2022-12-18T14:09:24;2.88;;;1.20;;
51184;SDS011;37248;59.350;18.050;2022-12-18T14:11:53;2.47;;;1.30;;
51184;SDS011;37248;59.350;18.050;2022-12-18T14:14:38;2.88;;;1.40;;
51184;SDS011;37248;59.350;18.050;2022-12-18T14:17:10;4.00;;;1.50;;
51184;SDS011;37248;59.350;18.050;2022-12-18T14:19:40;2.25;;;1.55;;
51184;SDS011;37248;59.350;18.050;2022-12-18T14:22:18;2.70;;;1.40;;
51184;SDS011;37248;59.350;18.050;2022-12-18T14:24:45;2.92;;;1.70;;
51184;SDS011;37248;59.350;18.050;2022-12-18T14:27:22;3.40;;;1.30;;
51184;SDS011;37248;59.350;18.050;2022-12-18T14:29:51;4.10;;;1.60;;
51184;SDS011;37248;59.350;18.050;2022-12-18T14:32:22;8.03;;;1.90;;
51184;SDS011;37248;59.350;18.050;2022-12-18T14:34:53;7.22;;;1.95;;
51184;SDS011;37248;59.350;18.050;2022-12-18T14:37:26;4.40;;;1.80;;
51184;SDS011;37248;59.350;18.050;2022-12-18T14:40:11;4.10;;;1.70;;
51184;SDS011;37248;59.350;18.050;2022-12-18T14:42:40;3.65;;;1.85;;
51184;SDS011;37248;59.350;18.050;2022-12-18T14:47:57;4.05;;;1.70;;
51184;SDS011;37248;59.350;18.050;2022-12-18T14:50:25;4.28;;;2.00;;
51184;SDS011;37248;59.350;18.050;2022-12-18T14:58:03;4.43;;;1.50;;
51184;SDS011;37248;59.350;18.050;2022-12-18T15:00:28;6.53;;;2.00;;
51184;SDS011;37248;59.350;18.050;2022-12-18T15:02:55;2.88;;;1.48;;
51184;SDS011;37248;59.350;18.050;2022-12-18T15:05:28;3.38;;;1.70;;
51184;SDS011;37248;59.350;18.050;2022-12-18T15:07:55;4.05;;;1.70;;
51184;SDS011;37248;59.350;18.050;2022-12-18T15:10:32;6.65;;;2.25;;
51184;SDS011;37248;59.350;18.050;2022-12-18T15:20:42;7.72;;;2.30;;
51184;SDS011;37248;59.350;18.050;2022-12-18T15:25:39;9.38;;;2.95;;
51184;SDS011;37248;59.350;18.050;2022-12-18T15:28:15;11.07;;;3.57;;
51184;SDS011;37248;59.350;18.050;2022-12-18T15:30:57;4.93;;;2.72;;
51184;SDS011;37248;59.350;18.050;2022-12-18T15:33:26;7.60;;;3.08;;
51184;SDS011;37248;59.350;18.050;2022-12-18T15:35:55;8.00;;;3.90;;
51184;SDS011;37248;59.350;18.050;2022-12-18T15:38:21;8.57;;;3.47;;
51184;SDS011;37248;59.350;18.050;2022-12-18T15:40:46;7.87;;;3.90;;
51184;SDS011;37248;59.350;18.050;2022-12-18T15:43:11;6.67;;;4.00;;
51184;SDS011;37248;59.350;18.050;2022-12-18T15:45:55;8.77;;;4.55;;
51184;SDS011;37248;59.350;18.050;2022-12-18T15:48:21;9.88;;;4.60;;
51184;SDS011;37248;59.350;18.050;2022-12-18T15:50:48;18.15;;;8.27;;
51184;SDS011;37248;59.350;18.050;2022-12-18T15:53:13;14.73;;;7.00;;
51184;SDS011;37248;59.350;18.050;2022-12-18T15:55:38;24.87;;;7.83;;
51184;SDS011;37248;59.350;18.050;2022-12-18T15:58:22;18.02;;;7.30;;
51184;SDS011;37248;59.350;18.050;2022-12-18T16:00:48;20.07;;;8.40;;
51184;SDS011;37248;59.350;18.050;2022-12-18T16:03:13;18.97;;;8.57;;
51184;SDS011;37248;59.350;18.050;2022-12-18T16:05:38;30.17;;;9.47;;
51184;SDS011;37248;59.350;18.050;2022-12-18T16:08:04;23.92;;;10.23;;
51184;SDS011;37248;59.350;18.050;2022-12-18T16:10:29;23.97;;;8.97;;
51184;SDS011;37248;59.350;18.050;2022-12-18T16:12:54;23.75;;;9.10;;
51184;SDS011;37248;59.350;18.050;2022-12-18T16:15:20;25.33;;;8.97;;
51184;SDS011;37248;59.350;18.050;2022-12-18T16:17:47;23.30;;;9.10;;
51184;SDS011;37248;59.350;18.050;2022-12-18T16:20:19;21.15;;;8.98;;
51184;SDS011;37248;59.350;18.050;2022-12-18T16:22:46;22.43;;;8.73;;
51184;SDS011;37248;59.350;18.050;2022-12-18T16:25:16;29.42;;;10.00;;
51184;SDS011;37248;59.350;18.050;2022-12-18T16:27:42;22.67;;;8.83;;
51184;SDS011;37248;59.350;18.050;2022-12-18T16:30:11;23.83;;;9.47;;
51184;SDS011;37248;59.350;18.050;2022-12-18T16:32:37;24.20;;;8.80;;
51184;SDS011;37248;59.350;18.050;2022-12-18T16:35:02;25.73;;;8.80;;
51184;SDS011;37248;59.350;18.050;2022-12-18T16:37:27;22.47;;;8.73;;